sensor_id;sensor_type;location;lat;lon;timestamp;P1;durP1;ratioP1;P2;durP2;ratioP2
70547;SDS011;58099;43.406;3.698;2022-08-19T00:00:17;3.00;;;0.90;;
70547;SDS011;58099;43.406;3.698;2022-08-19T00:02:44;3.28;;;0.80;;
70547;SDS011;58099;43.406;3.698;2022-08-19T00:05:11;3.55;;;0.60;;
70547;SDS011;58099;43.406;3.698;2022-08-19T00:07:37;2.90;;;0.70;;
70547;SDS011;58099;43.406;3.698;2022-08-19T00:10:05;3.03;;;0.70;;
70547;SDS011;58099;43.406;3.698;2022-08-19T00:12:31;3.33;;;0.55;;
70547;SDS011;58099;43.406;3.698;2022-08-19T00:14:58;3.70;;;0.88;;
70547;SDS011;58099;43.406;3.698;2022-08-19T00:17:24;3.08;;;0.88;;
70547;SDS011;58099;43.406;3.698;2022-08-19T00:19:50;4.32;;;0.80;;
70547;SDS011;58099;43.406;3.698;2022-08-19T00:22:16;3.33;;;0.80;;
70547;SDS011;58099;43.406;3.698;2022-08-19T00:24:43;3.60;;;1.08;;
70547;SDS011;58099;43.406;3.698;2022-08-19T00:27:10;4.40;;;1.00;;
70547;SDS011;58099;43.406;3.698;2022-08-19T00:29:36;2.97;;;1.00;;
70547;SDS011;58099;43.406;3.698;2022-08-19T00:32:03;3.05;;;0.90;;
70547;SDS011;58099;43.406;3.698;2022-08-19T00:34:29;4.20;;;0.90;;
70547;SDS011;58099;43.406;3.698;2022-08-19T00:36:56;3.47;;;1.10;;
70547;SDS011;58099;43.406;3.698;2022-08-19T00:39:22;3.00;;;1.00;;
70547;SDS011;58099;43.406;3.698;2022-08-19T00:41:48;2.80;;;0.60;;
70547;SDS011;58099;43.406;3.698;2022-08-19T00:46:45;3.30;;;1.10;;
70547;SDS011;58099;43.406;3.698;2022-08-19T00:51:39;3.63;;;1.20;;
70547;SDS011;58099;43.406;3.698;2022-08-19T00:54:06;3.70;;;0.98;;
70547;SDS011;58099;43.406;3.698;2022-08-19T00:56:34;3.42;;;0.90;;
70547;SDS011;58099;43.406;3.698;2022-08-19T00:59:00;4.40;;;0.80;;
70547;SDS011;58099;43.406;3.698;2022-08-19T01:01:27;3.20;;;1.00;;
70547;SDS011;58099;43.406;3.698;2022-08-19T01:03:53;3.20;;;0.90;;
70547;SDS011;58099;43.406;3.698;2022-08-19T01:06:19;3.53;;;1.00;;
70547;SDS011;58099;43.406;3.698;2022-08-19T01:08:46;3.30;;;1.13;;
70547;SDS011;58099;43.406;3.698;2022-08-19T01:11:12;3.70;;;1.20;;
70547;SDS011;58099;43.406;3.698;2022-08-19T01:13:38;3.72;;;0.95;;
70547;SDS011;58099;43.406;3.698;2022-08-19T01:16:07;3.75;;;0.90;;
70547;SDS011;58099;43.406;3.698;2022-08-19T01:18:38;3.50;;;1.08;;
70547;SDS011;58099;43.406;3.698;2022-08-19T01:21:08;3.85;;;1.10;;
70547;SDS011;58099;43.406;3.698;2022-08-19T01:23:35;4.37;;;1.60;;
70547;SDS011;58099;43.406;3.698;2022-08-19T01:26:14;3.95;;;1.30;;
70547;SDS011;58099;43.406;3.698;2022-08-19T01:28:41;3.75;;;1.20;;
70547;SDS011;58099;43.406;3.698;2022-08-19T01:31:08;3.83;;;1.30;;
70547;SDS011;58099;43.406;3.698;2022-08-19T01:33:36;4.05;;;1.63;;
70547;SDS011;58099;43.406;3.698;2022-08-19T01:36:03;4.37;;;1.50;;
70547;SDS011;58099;43.406;3.698;2022-08-19T01:38:30;3.30;;;1.10;;
70547;SDS011;58099;43.406;3.698;2022-08-19T01:40:56;4.22;;;1.45;;
70547;SDS011;58099;43.406;3.698;2022-08-19T01:43:23;4.85;;;1.30;;
70547;SDS011;58099;43.406;3.698;2022-08-19T01:45:49;3.97;;;1.23;;
70547;SDS011;58099;43.406;3.698;2022-08-19T01:48:15;5.33;;;1.40;;
70547;SDS011;58099;43.406;3.698;2022-08-19T01:50:42;4.28;;;1.58;;
70547;SDS011;58099;43.406;3.698;2022-08-19T01:53:09;4.32;;;1.50;;
70547;SDS011;58099;43.406;3.698;2022-08-19T01:55:37;4.45;;;1.00;;
70547;SDS011;58099;43.406;3.698;2022-08-19T01:58:04;3.80;;;1.35;;
70547;SDS011;58099;43.406;3.698;2022-08-19T02:00:31;4.43;;;1.53;;
70547;SDS011;58099;43.406;3.698;2022-08-19T02:02:58;4.63;;;1.50;;
70547;SDS011;58099;43.406;3.698;2022-08-19T02:05:26;5.13;;;1.60;;
70547;SDS011;58099;43.406;3.698;2022-08-19T02:07:54;3.58;;;1.50;;
70547;SDS011;58099;43.406;3.698;2022-08-19T02:10:21;5.20;;;1.70;;
70547;SDS011;58099;43.406;3.698;2022-08-19T02:12:47;4.33;;;1.57;;
70547;SDS011;58099;43.406;3.698;2022-08-19T02:15:17;3.85;;;1.80;;
70547;SDS011;58099;43.406;3.698;2022-08-19T02:17:44;4.47;;;1.70;;
70547;SDS011;58099;43.406;3.698;2022-08-19T02:20:10;4.68;;;2.00;;
70547;SDS011;58099;43.406;3.698;2022-08-19T02:22:38;4.63;;;1.80;;
70547;SDS011;58099;43.406;3.698;2022-08-19T02:25:06;4.87;;;2.10;;
70547;SDS011;58099;43.406;3.698;2022-08-19T02:27:33;4.38;;;1.85;;
70547;SDS011;58099;43.406;3.698;2022-08-19T02:29:59;4.30;;;1.85;;
70547;SDS011;58099;43.406;3.698;2022-08-19T02:32:26;5.07;;;2.20;;
70547;SDS011;58099;43.406;3.698;2022-08-19T02:34:52;4.43;;;1.98;;
70547;SDS011;58099;43.406;3.698;2022-08-19T02:37:18;4.87;;;2.00;;
70547;SDS011;58099;43.406;3.698;2022-08-19T02:40:03;4.88;;;2.10;;
70547;SDS011;58099;43.406;3.698;2022-08-19T02:42:29;5.50;;;2.20;;
70547;SDS011;58099;43.406;3.698;2022-08-19T02:44:56;4.47;;;2.00;;
70547;SDS011;58099;43.406;3.698;2022-08-19T02:47:22;4.78;;;2.38;;
70547;SDS011;58099;43.406;3.698;2022-08-19T02:49:48;4.63;;;2.13;;
70547;SDS011;58099;43.406;3.698;2022-08-19T02:52:17;5.28;;;2.60;;
70547;SDS011;58099;43.406;3.698;2022-08-19T02:54:43;7.22;;;2.42;;
70547;SDS011;58099;43.406;3.698;2022-08-19T02:57:09;5.47;;;2.45;;
70547;SDS011;58099;43.406;3.698;2022-08-19T02:59:36;5.00;;;2.33;;
70547;SDS011;58099;43.406;3.698;2022-08-19T03:02:02;5.60;;;2.50;;
70547;SDS011;58099;43.406;3.698;2022-08-19T03:04:28;5.30;;;2.70;;
70547;SDS011;58099;43.406;3.698;2022-08-19T03:06:54;6.10;;;2.55;;
70547;SDS011;58099;43.406;3.698;2022-08-19T03:09:20;5.78;;;2.50;;
70547;SDS011;58099;43.406;3.698;2022-08-19T03:11:47;6.53;;;2.95;;
70547;SDS011;58099;43.406;3.698;2022-08-19T03:14:13;6.37;;;2.70;;
70547;SDS011;58099;43.406;3.698;2022-08-19T03:16:41;6.88;;;3.20;;
70547;SDS011;58099;43.406;3.698;2022-08-19T03:19:08;5.93;;;3.00;;
70547;SDS011;58099;43.406;3.698;2022-08-19T03:21:34;5.55;;;3.05;;
70547;SDS011;58099;43.406;3.698;2022-08-19T03:24:02;5.75;;;3.20;;
70547;SDS011;58099;43.406;3.698;2022-08-19T03:26:29;6.33;;;3.30;;
70547;SDS011;58099;43.406;3.698;2022-08-19T03:28:55;7.28;;;3.28;;
70547;SDS011;58099;43.406;3.698;2022-08-19T03:31:25;6.38;;;3.00;;
70547;SDS011;58099;43.406;3.698;2022-08-19T03:33:51;7.72;;;3.08;;
70547;SDS011;58099;43.406;3.698;2022-08-19T03:36:18;7.72;;;3.63;;
70547;SDS011;58099;43.406;3.698;2022-08-19T03:38:47;6.90;;;3.47;;
70547;SDS011;58099;43.406;3.698;2022-08-19T03:41:16;6.25;;;3.53;;
70547;SDS011;58099;43.406;3.698;2022-08-19T03:43:43;6.70;;;3.53;;
70547;SDS011;58099;43.406;3.698;2022-08-19T03:46:13;6.68;;;3.42;;
70547;SDS011;58099;43.406;3.698;2022-08-19T03:48:40;6.80;;;3.70;;
70547;SDS011;58099;43.406;3.698;2022-08-19T03:51:07;6.83;;;3.80;;
70547;SDS011;58099;43.406;3.698;2022-08-19T03:53:34;6.68;;;3.70;;
70547;SDS011;58099;43.406;3.698;2022-08-19T03:56:00;8.18;;;4.10;;
70547;SDS011;58099;43.406;3.698;2022-08-19T03:58:28;6.60;;;3.53;;
70547;SDS011;58099;43.406;3.698;2022-08-19T04:00:57;6.40;;;3.85;;
70547;SDS011;58099;43.406;3.698;2022-08-19T04:03:24;8.50;;;3.70;;
70547;SDS011;58099;43.406;3.698;2022-08-19T04:05:51;8.25;;;3.80;;
70547;SDS011;58099;43.406;3.698;2022-08-19T04:08:18;8.40;;;4.13;;
70547;SDS011;58099;43.406;3.698;2022-08-19T04:10:47;6.82;;;3.90;;
70547;SDS011;58099;43.406;3.698;2022-08-19T04:13:14;6.65;;;3.45;;
70547;SDS011;58099;43.406;3.698;2022-08-19T04:15:41;9.03;;;3.67;;
70547;SDS011;58099;43.406;3.698;2022-08-19T04:18:08;7.40;;;4.20;;
70547;SDS011;58099;43.406;3.698;2022-08-19T04:20:43;7.60;;;3.47;;
70547;SDS011;58099;43.406;3.698;2022-08-19T04:23:10;7.28;;;4.38;;
70547;SDS011;58099;43.406;3.698;2022-08-19T04:25:38;6.03;;;3.42;;
70547;SDS011;58099;43.406;3.698;2022-08-19T04:28:04;6.80;;;4.00;;
70547;SDS011;58099;43.406;3.698;2022-08-19T04:30:30;7.65;;;3.90;;
70547;SDS011;58099;43.406;3.698;2022-08-19T04:32:56;7.22;;;4.20;;
70547;SDS011;58099;43.406;3.698;2022-08-19T04:35:22;8.13;;;4.22;;
70547;SDS011;58099;43.406;3.698;2022-08-19T04:37:48;7.93;;;3.85;;
70547;SDS011;58099;43.406;3.698;2022-08-19T04:40:14;7.43;;;3.90;;
70547;SDS011;58099;43.406;3.698;2022-08-19T04:42:59;7.43;;;4.03;;
70547;SDS011;58099;43.406;3.698;2022-08-19T04:45:26;7.18;;;4.00;;
70547;SDS011;58099;43.406;3.698;2022-08-19T04:47:54;8.35;;;4.30;;
70547;SDS011;58099;43.406;3.698;2022-08-19T04:50:21;7.03;;;3.47;;
70547;SDS011;58099;43.406;3.698;2022-08-19T04:52:49;9.43;;;4.33;;
70547;SDS011;58099;43.406;3.698;2022-08-19T04:55:15;8.02;;;4.10;;
70547;SDS011;58099;43.406;3.698;2022-08-19T04:57:42;8.43;;;4.00;;
70547;SDS011;58099;43.406;3.698;2022-08-19T05:00:09;7.93;;;4.18;;
70547;SDS011;58099;43.406;3.698;2022-08-19T05:02:35;7.30;;;4.03;;
70547;SDS011;58099;43.406;3.698;2022-08-19T05:05:02;7.37;;;3.90;;
70547;SDS011;58099;43.406;3.698;2022-08-19T05:07:28;8.00;;;4.00;;
70547;SDS011;58099;43.406;3.698;2022-08-19T05:09:54;7.43;;;4.05;;
70547;SDS011;58099;43.406;3.698;2022-08-19T05:12:20;7.20;;;4.45;;
70547;SDS011;58099;43.406;3.698;2022-08-19T05:14:46;7.40;;;4.20;;
70547;SDS011;58099;43.406;3.698;2022-08-19T05:17:14;7.90;;;4.03;;
70547;SDS011;58099;43.406;3.698;2022-08-19T05:19:40;7.88;;;4.35;;
70547;SDS011;58099;43.406;3.698;2022-08-19T05:22:24;8.68;;;4.40;;
70547;SDS011;58099;43.406;3.698;2022-08-19T05:25:00;7.82;;;3.67;;
70547;SDS011;58099;43.406;3.698;2022-08-19T05:27:26;7.40;;;4.15;;
70547;SDS011;58099;43.406;3.698;2022-08-19T05:29:52;7.90;;;4.07;;
70547;SDS011;58099;43.406;3.698;2022-08-19T05:32:18;7.57;;;4.20;;
70547;SDS011;58099;43.406;3.698;2022-08-19T05:34:46;8.20;;;4.07;;
70547;SDS011;58099;43.406;3.698;2022-08-19T05:37:12;7.60;;;4.28;;
70547;SDS011;58099;43.406;3.698;2022-08-19T05:39:38;8.82;;;4.00;;
70547;SDS011;58099;43.406;3.698;2022-08-19T05:42:08;9.13;;;4.60;;
70547;SDS011;58099;43.406;3.698;2022-08-19T05:44:36;8.05;;;4.13;;
70547;SDS011;58099;43.406;3.698;2022-08-19T05:47:03;6.75;;;4.00;;
70547;SDS011;58099;43.406;3.698;2022-08-19T05:49:30;7.35;;;4.30;;
70547;SDS011;58099;43.406;3.698;2022-08-19T05:51:56;7.15;;;4.10;;
70547;SDS011;58099;43.406;3.698;2022-08-19T05:54:24;7.53;;;4.30;;
70547;SDS011;58099;43.406;3.698;2022-08-19T05:56:51;9.77;;;4.60;;
70547;SDS011;58099;43.406;3.698;2022-08-19T05:59:17;7.97;;;4.10;;
70547;SDS011;58099;43.406;3.698;2022-08-19T06:01:45;7.55;;;3.85;;
70547;SDS011;58099;43.406;3.698;2022-08-19T06:04:12;7.80;;;3.85;;
70547;SDS011;58099;43.406;3.698;2022-08-19T06:06:38;8.17;;;3.87;;
70547;SDS011;58099;43.406;3.698;2022-08-19T06:09:05;8.18;;;4.05;;
70547;SDS011;58099;43.406;3.698;2022-08-19T06:11:37;8.10;;;3.90;;
70547;SDS011;58099;43.406;3.698;2022-08-19T06:14:07;7.85;;;4.05;;
70547;SDS011;58099;43.406;3.698;2022-08-19T06:16:35;7.10;;;4.18;;
70547;SDS011;58099;43.406;3.698;2022-08-19T06:19:03;6.97;;;4.07;;
70547;SDS011;58099;43.406;3.698;2022-08-19T06:21:31;6.45;;;3.78;;
70547;SDS011;58099;43.406;3.698;2022-08-19T06:23:58;7.95;;;4.13;;
70547;SDS011;58099;43.406;3.698;2022-08-19T06:26:24;7.25;;;4.07;;
70547;SDS011;58099;43.406;3.698;2022-08-19T06:28:51;6.43;;;3.78;;
70547;SDS011;58099;43.406;3.698;2022-08-19T06:31:20;8.33;;;3.57;;
70547;SDS011;58099;43.406;3.698;2022-08-19T06:33:46;7.18;;;3.55;;
70547;SDS011;58099;43.406;3.698;2022-08-19T06:36:17;8.98;;;4.35;;
70547;SDS011;58099;43.406;3.698;2022-08-19T06:38:43;7.00;;;3.70;;
70547;SDS011;58099;43.406;3.698;2022-08-19T06:41:09;9.02;;;4.30;;
70547;SDS011;58099;43.406;3.698;2022-08-19T06:43:36;6.83;;;3.80;;
70547;SDS011;58099;43.406;3.698;2022-08-19T06:46:02;6.70;;;3.78;;
70547;SDS011;58099;43.406;3.698;2022-08-19T06:48:29;9.60;;;3.72;;
70547;SDS011;58099;43.406;3.698;2022-08-19T06:50:55;6.93;;;3.72;;
70547;SDS011;58099;43.406;3.698;2022-08-19T06:53:21;8.93;;;3.95;;
70547;SDS011;58099;43.406;3.698;2022-08-19T06:55:47;7.67;;;3.73;;
70547;SDS011;58099;43.406;3.698;2022-08-19T06:58:25;7.35;;;3.60;;
70547;SDS011;58099;43.406;3.698;2022-08-19T07:00:51;6.97;;;3.50;;
70547;SDS011;58099;43.406;3.698;2022-08-19T07:03:17;9.55;;;3.83;;
70547;SDS011;58099;43.406;3.698;2022-08-19T07:05:43;7.38;;;4.10;;
70547;SDS011;58099;43.406;3.698;2022-08-19T07:08:09;9.80;;;3.70;;
70547;SDS011;58099;43.406;3.698;2022-08-19T07:10:35;6.35;;;3.70;;
70547;SDS011;58099;43.406;3.698;2022-08-19T07:13:02;6.78;;;3.83;;
70547;SDS011;58099;43.406;3.698;2022-08-19T07:15:28;7.45;;;4.18;;
70547;SDS011;58099;43.406;3.698;2022-08-19T07:17:55;7.05;;;3.50;;
70547;SDS011;58099;43.406;3.698;2022-08-19T07:20:22;9.47;;;3.50;;
70547;SDS011;58099;43.406;3.698;2022-08-19T07:22:48;8.50;;;3.70;;
70547;SDS011;58099;43.406;3.698;2022-08-19T07:25:18;8.75;;;3.65;;
70547;SDS011;58099;43.406;3.698;2022-08-19T07:27:45;7.13;;;3.88;;
70547;SDS011;58099;43.406;3.698;2022-08-19T07:30:14;7.63;;;3.70;;
70547;SDS011;58099;43.406;3.698;2022-08-19T07:32:40;8.10;;;3.80;;
70547;SDS011;58099;43.406;3.698;2022-08-19T07:35:07;7.22;;;2.80;;
70547;SDS011;58099;43.406;3.698;2022-08-19T07:37:34;6.25;;;3.30;;
70547;SDS011;58099;43.406;3.698;2022-08-19T07:40:03;7.72;;;3.80;;
70547;SDS011;58099;43.406;3.698;2022-08-19T07:42:29;7.22;;;3.47;;
70547;SDS011;58099;43.406;3.698;2022-08-19T07:44:55;7.07;;;3.70;;
70547;SDS011;58099;43.406;3.698;2022-08-19T07:47:22;5.85;;;3.28;;
70547;SDS011;58099;43.406;3.698;2022-08-19T07:49:48;6.50;;;3.72;;
70547;SDS011;58099;43.406;3.698;2022-08-19T07:52:14;5.80;;;3.67;;
70547;SDS011;58099;43.406;3.698;2022-08-19T07:54:41;7.97;;;3.28;;
70547;SDS011;58099;43.406;3.698;2022-08-19T07:57:07;8.67;;;3.53;;
70547;SDS011;58099;43.406;3.698;2022-08-19T07:59:34;7.35;;;3.47;;
70547;SDS011;58099;43.406;3.698;2022-08-19T08:02:00;6.43;;;3.33;;
70547;SDS011;58099;43.406;3.698;2022-08-19T08:04:27;7.38;;;3.60;;
70547;SDS011;58099;43.406;3.698;2022-08-19T08:07:12;6.25;;;3.10;;
70547;SDS011;58099;43.406;3.698;2022-08-19T08:09:57;6.87;;;3.50;;
70547;SDS011;58099;43.406;3.698;2022-08-19T08:12:28;8.82;;;3.53;;
70547;SDS011;58099;43.406;3.698;2022-08-19T08:14:56;6.45;;;2.88;;
70547;SDS011;58099;43.406;3.698;2022-08-19T08:17:24;7.20;;;3.45;;
70547;SDS011;58099;43.406;3.698;2022-08-19T08:19:50;7.30;;;3.28;;
70547;SDS011;58099;43.406;3.698;2022-08-19T08:22:17;5.33;;;3.13;;
70547;SDS011;58099;43.406;3.698;2022-08-19T08:25:13;7.15;;;3.30;;
70547;SDS011;58099;43.406;3.698;2022-08-19T08:27:40;7.70;;;3.70;;
70547;SDS011;58099;43.406;3.698;2022-08-19T08:30:07;8.68;;;3.47;;
70547;SDS011;58099;43.406;3.698;2022-08-19T08:32:35;5.88;;;3.05;;
70547;SDS011;58099;43.406;3.698;2022-08-19T08:35:02;5.80;;;3.40;;
70547;SDS011;58099;43.406;3.698;2022-08-19T08:37:29;6.70;;;3.60;;
70547;SDS011;58099;43.406;3.698;2022-08-19T08:39:55;5.93;;;3.45;;
70547;SDS011;58099;43.406;3.698;2022-08-19T08:42:23;6.90;;;3.08;;
70547;SDS011;58099;43.406;3.698;2022-08-19T08:44:54;7.45;;;3.47;;
70547;SDS011;58099;43.406;3.698;2022-08-19T08:47:22;5.87;;;3.30;;
70547;SDS011;58099;43.406;3.698;2022-08-19T08:52:33;6.22;;;3.40;;
70547;SDS011;58099;43.406;3.698;2022-08-19T08:55:05;7.30;;;3.67;;
70547;SDS011;58099;43.406;3.698;2022-08-19T08:57:52;6.68;;;3.63;;
70547;SDS011;58099;43.406;3.698;2022-08-19T09:02:55;6.03;;;3.10;;
70547;SDS011;58099;43.406;3.698;2022-08-19T09:05:22;7.25;;;3.10;;
70547;SDS011;58099;43.406;3.698;2022-08-19T09:10:39;6.22;;;3.33;;
70547;SDS011;58099;43.406;3.698;2022-08-19T09:15:34;5.78;;;3.28;;
70547;SDS011;58099;43.406;3.698;2022-08-19T09:18:03;6.53;;;3.25;;
70547;SDS011;58099;43.406;3.698;2022-08-19T09:20:29;5.72;;;3.40;;
70547;SDS011;58099;43.406;3.698;2022-08-19T09:22:56;5.78;;;3.22;;
70547;SDS011;58099;43.406;3.698;2022-08-19T09:25:23;5.43;;;3.00;;
70547;SDS011;58099;43.406;3.698;2022-08-19T09:27:50;5.80;;;3.15;;
70547;SDS011;58099;43.406;3.698;2022-08-19T09:30:19;6.80;;;3.13;;
70547;SDS011;58099;43.406;3.698;2022-08-19T09:32:47;5.70;;;3.03;;
70547;SDS011;58099;43.406;3.698;2022-08-19T09:35:13;5.00;;;3.00;;
70547;SDS011;58099;43.406;3.698;2022-08-19T09:37:40;7.35;;;3.10;;
70547;SDS011;58099;43.406;3.698;2022-08-19T09:40:06;6.80;;;3.60;;
70547;SDS011;58099;43.406;3.698;2022-08-19T09:42:33;6.38;;;3.10;;
70547;SDS011;58099;43.406;3.698;2022-08-19T09:44:59;5.80;;;2.92;;
70547;SDS011;58099;43.406;3.698;2022-08-19T09:47:25;6.25;;;3.60;;
70547;SDS011;58099;43.406;3.698;2022-08-19T09:49:51;6.93;;;3.07;;
70547;SDS011;58099;43.406;3.698;2022-08-19T09:52:17;5.30;;;3.15;;
70547;SDS011;58099;43.406;3.698;2022-08-19T09:54:43;6.18;;;3.03;;
70547;SDS011;58099;43.406;3.698;2022-08-19T09:57:09;6.15;;;3.13;;
70547;SDS011;58099;43.406;3.698;2022-08-19T09:59:35;5.35;;;3.15;;
70547;SDS011;58099;43.406;3.698;2022-08-19T10:02:02;6.25;;;3.30;;
70547;SDS011;58099;43.406;3.698;2022-08-19T10:04:28;6.32;;;2.90;;
70547;SDS011;58099;43.406;3.698;2022-08-19T10:07:13;7.70;;;3.60;;
70547;SDS011;58099;43.406;3.698;2022-08-19T10:09:39;8.35;;;3.95;;
70547;SDS011;58099;43.406;3.698;2022-08-19T10:12:06;7.03;;;2.42;;
70547;SDS011;58099;43.406;3.698;2022-08-19T10:14:32;5.53;;;3.00;;
70547;SDS011;58099;43.406;3.698;2022-08-19T10:16:58;7.85;;;3.20;;
70547;SDS011;58099;43.406;3.698;2022-08-19T10:19:25;6.70;;;3.28;;
70547;SDS011;58099;43.406;3.698;2022-08-19T10:21:57;4.47;;;2.53;;
70547;SDS011;58099;43.406;3.698;2022-08-19T10:24:23;4.72;;;3.03;;
70547;SDS011;58099;43.406;3.698;2022-08-19T10:26:50;5.40;;;2.60;;
70547;SDS011;58099;43.406;3.698;2022-08-19T10:29:16;5.00;;;3.28;;
70547;SDS011;58099;43.406;3.698;2022-08-19T10:31:42;4.40;;;2.95;;
70547;SDS011;58099;43.406;3.698;2022-08-19T10:34:08;5.03;;;2.90;;
70547;SDS011;58099;43.406;3.698;2022-08-19T10:36:35;5.93;;;3.20;;
70547;SDS011;58099;43.406;3.698;2022-08-19T10:39:05;6.07;;;3.00;;
70547;SDS011;58099;43.406;3.698;2022-08-19T10:41:33;5.55;;;3.00;;
70547;SDS011;58099;43.406;3.698;2022-08-19T10:44:00;4.97;;;2.65;;
70547;SDS011;58099;43.406;3.698;2022-08-19T10:46:27;4.68;;;2.88;;
70547;SDS011;58099;43.406;3.698;2022-08-19T10:48:56;7.10;;;3.08;;
70547;SDS011;58099;43.406;3.698;2022-08-19T10:51:22;5.93;;;2.30;;
70547;SDS011;58099;43.406;3.698;2022-08-19T10:54:07;5.05;;;2.80;;
70547;SDS011;58099;43.406;3.698;2022-08-19T10:56:33;5.03;;;3.17;;
70547;SDS011;58099;43.406;3.698;2022-08-19T10:59:19;4.93;;;2.85;;
70547;SDS011;58099;43.406;3.698;2022-08-19T11:01:46;5.47;;;2.83;;
70547;SDS011;58099;43.406;3.698;2022-08-19T11:04:13;4.80;;;2.90;;
70547;SDS011;58099;43.406;3.698;2022-08-19T11:06:42;5.38;;;2.90;;
70547;SDS011;58099;43.406;3.698;2022-08-19T11:09:08;5.75;;;3.20;;
70547;SDS011;58099;43.406;3.698;2022-08-19T11:11:36;5.55;;;2.78;;
70547;SDS011;58099;43.406;3.698;2022-08-19T11:14:05;4.80;;;2.67;;
70547;SDS011;58099;43.406;3.698;2022-08-19T11:16:31;5.30;;;2.80;;
70547;SDS011;58099;43.406;3.698;2022-08-19T11:18:58;6.20;;;2.85;;
70547;SDS011;58099;43.406;3.698;2022-08-19T11:21:26;7.25;;;2.65;;
70547;SDS011;58099;43.406;3.698;2022-08-19T11:23:53;4.50;;;2.13;;
70547;SDS011;58099;43.406;3.698;2022-08-19T11:26:20;4.95;;;2.28;;
70547;SDS011;58099;43.406;3.698;2022-08-19T11:28:46;5.85;;;2.50;;
70547;SDS011;58099;43.406;3.698;2022-08-19T11:31:13;4.80;;;3.00;;
70547;SDS011;58099;43.406;3.698;2022-08-19T11:33:40;5.25;;;2.95;;
70547;SDS011;58099;43.406;3.698;2022-08-19T11:36:06;5.53;;;2.90;;
70547;SDS011;58099;43.406;3.698;2022-08-19T11:38:33;4.43;;;2.75;;
70547;SDS011;58099;43.406;3.698;2022-08-19T11:41:02;4.40;;;2.85;;
70547;SDS011;58099;43.406;3.698;2022-08-19T11:43:29;4.65;;;2.40;;
70547;SDS011;58099;43.406;3.698;2022-08-19T11:45:56;4.85;;;2.70;;
70547;SDS011;58099;43.406;3.698;2022-08-19T11:48:23;4.70;;;2.72;;
70547;SDS011;58099;43.406;3.698;2022-08-19T11:50:49;5.38;;;2.60;;
70547;SDS011;58099;43.406;3.698;2022-08-19T11:53:16;7.68;;;3.67;;
70547;SDS011;58099;43.406;3.698;2022-08-19T11:55:45;6.20;;;3.10;;
70547;SDS011;58099;43.406;3.698;2022-08-19T11:58:11;6.25;;;3.22;;
70547;SDS011;58099;43.406;3.698;2022-08-19T12:00:38;4.75;;;3.17;;
70547;SDS011;58099;43.406;3.698;2022-08-19T12:03:04;4.45;;;2.75;;
70547;SDS011;58099;43.406;3.698;2022-08-19T12:05:30;8.57;;;3.15;;
70547;SDS011;58099;43.406;3.698;2022-08-19T12:07:57;4.68;;;2.88;;
70547;SDS011;58099;43.406;3.698;2022-08-19T12:10:23;4.53;;;2.10;;
70547;SDS011;58099;43.406;3.698;2022-08-19T12:12:49;4.82;;;2.97;;
70547;SDS011;58099;43.406;3.698;2022-08-19T12:15:15;6.28;;;2.83;;
70547;SDS011;58099;43.406;3.698;2022-08-19T12:17:41;4.80;;;2.70;;
70547;SDS011;58099;43.406;3.698;2022-08-19T12:20:11;5.60;;;2.97;;
70547;SDS011;58099;43.406;3.698;2022-08-19T12:22:38;4.80;;;2.92;;
70547;SDS011;58099;43.406;3.698;2022-08-19T12:25:08;4.75;;;2.75;;
70547;SDS011;58099;43.406;3.698;2022-08-19T12:27:35;4.85;;;3.30;;
70547;SDS011;58099;43.406;3.698;2022-08-19T12:30:02;5.43;;;2.80;;
70547;SDS011;58099;43.406;3.698;2022-08-19T12:32:28;5.22;;;2.95;;
70547;SDS011;58099;43.406;3.698;2022-08-19T12:34:54;6.00;;;3.13;;
70547;SDS011;58099;43.406;3.698;2022-08-19T12:37:20;6.68;;;2.42;;
70547;SDS011;58099;43.406;3.698;2022-08-19T12:39:47;6.25;;;2.88;;
70547;SDS011;58099;43.406;3.698;2022-08-19T12:42:13;4.93;;;2.95;;
70547;SDS011;58099;43.406;3.698;2022-08-19T12:44:40;5.25;;;2.88;;
70547;SDS011;58099;43.406;3.698;2022-08-19T12:47:07;4.95;;;2.83;;
70547;SDS011;58099;43.406;3.698;2022-08-19T12:49:33;5.10;;;3.00;;
70547;SDS011;58099;43.406;3.698;2022-08-19T12:52:01;5.30;;;3.25;;
70547;SDS011;58099;43.406;3.698;2022-08-19T12:54:28;4.65;;;2.88;;
70547;SDS011;58099;43.406;3.698;2022-08-19T12:56:55;4.45;;;3.10;;
70547;SDS011;58099;43.406;3.698;2022-08-19T12:59:21;4.32;;;3.03;;
70547;SDS011;58099;43.406;3.698;2022-08-19T13:01:47;4.68;;;2.92;;
70547;SDS011;58099;43.406;3.698;2022-08-19T13:04:14;4.75;;;2.90;;
70547;SDS011;58099;43.406;3.698;2022-08-19T13:06:41;4.60;;;3.17;;
70547;SDS011;58099;43.406;3.698;2022-08-19T13:09:08;5.15;;;2.55;;
70547;SDS011;58099;43.406;3.698;2022-08-19T13:11:34;5.07;;;3.10;;
70547;SDS011;58099;43.406;3.698;2022-08-19T13:14:01;5.07;;;3.03;;
70547;SDS011;58099;43.406;3.698;2022-08-19T13:16:27;5.30;;;3.10;;
70547;SDS011;58099;43.406;3.698;2022-08-19T13:18:54;6.70;;;3.55;;
70547;SDS011;58099;43.406;3.698;2022-08-19T13:21:21;5.03;;;2.80;;
70547;SDS011;58099;43.406;3.698;2022-08-19T13:23:48;4.90;;;2.97;;
70547;SDS011;58099;43.406;3.698;2022-08-19T13:26:15;5.95;;;3.20;;
70547;SDS011;58099;43.406;3.698;2022-08-19T13:28:42;5.03;;;3.33;;
70547;SDS011;58099;43.406;3.698;2022-08-19T13:31:28;5.25;;;3.75;;
70547;SDS011;58099;43.406;3.698;2022-08-19T13:34:13;6.03;;;3.63;;
70547;SDS011;58099;43.406;3.698;2022-08-19T13:36:40;5.10;;;3.30;;
70547;SDS011;58099;43.406;3.698;2022-08-19T13:39:06;5.72;;;3.35;;
70547;SDS011;58099;43.406;3.698;2022-08-19T13:41:34;4.55;;;3.30;;
70547;SDS011;58099;43.406;3.698;2022-08-19T13:44:00;7.45;;;2.83;;
70547;SDS011;58099;43.406;3.698;2022-08-19T13:46:27;5.32;;;3.50;;
70547;SDS011;58099;43.406;3.698;2022-08-19T13:48:54;4.97;;;3.08;;
70547;SDS011;58099;43.406;3.698;2022-08-19T13:51:21;5.82;;;2.90;;
70547;SDS011;58099;43.406;3.698;2022-08-19T13:53:47;5.28;;;2.97;;
70547;SDS011;58099;43.406;3.698;2022-08-19T13:56:14;5.20;;;3.28;;
70547;SDS011;58099;43.406;3.698;2022-08-19T13:58:40;4.50;;;3.25;;
70547;SDS011;58099;43.406;3.698;2022-08-19T14:01:07;5.80;;;3.15;;
70547;SDS011;58099;43.406;3.698;2022-08-19T14:03:34;4.63;;;3.00;;
70547;SDS011;58099;43.406;3.698;2022-08-19T14:06:00;7.07;;;3.63;;
70547;SDS011;58099;43.406;3.698;2022-08-19T14:08:27;5.78;;;3.08;;
70547;SDS011;58099;43.406;3.698;2022-08-19T14:10:53;5.53;;;3.10;;
70547;SDS011;58099;43.406;3.698;2022-08-19T14:13:20;5.38;;;3.17;;
70547;SDS011;58099;43.406;3.698;2022-08-19T14:15:47;4.80;;;2.78;;
70547;SDS011;58099;43.406;3.698;2022-08-19T14:18:13;4.45;;;2.85;;
70547;SDS011;58099;43.406;3.698;2022-08-19T14:20:41;4.38;;;2.85;;
70547;SDS011;58099;43.406;3.698;2022-08-19T14:23:07;6.10;;;3.38;;
70547;SDS011;58099;43.406;3.698;2022-08-19T14:25:33;4.97;;;3.15;;
70547;SDS011;58099;43.406;3.698;2022-08-19T14:27:59;5.00;;;3.38;;
70547;SDS011;58099;43.406;3.698;2022-08-19T14:30:28;5.53;;;2.90;;
70547;SDS011;58099;43.406;3.698;2022-08-19T14:32:55;5.00;;;3.05;;
70547;SDS011;58099;43.406;3.698;2022-08-19T14:35:23;4.65;;;2.83;;
70547;SDS011;58099;43.406;3.698;2022-08-19T14:37:49;5.32;;;3.25;;
70547;SDS011;58099;43.406;3.698;2022-08-19T14:40:19;5.10;;;2.70;;
70547;SDS011;58099;43.406;3.698;2022-08-19T14:42:46;5.90;;;3.65;;
70547;SDS011;58099;43.406;3.698;2022-08-19T14:45:13;5.55;;;3.28;;
70547;SDS011;58099;43.406;3.698;2022-08-19T14:47:39;6.35;;;3.30;;
70547;SDS011;58099;43.406;3.698;2022-08-19T14:50:06;6.57;;;3.70;;
70547;SDS011;58099;43.406;3.698;2022-08-19T14:52:33;5.63;;;3.17;;
70547;SDS011;58099;43.406;3.698;2022-08-19T14:54:59;4.78;;;2.80;;
70547;SDS011;58099;43.406;3.698;2022-08-19T14:57:25;4.82;;;3.35;;
70547;SDS011;58099;43.406;3.698;2022-08-19T14:59:51;5.28;;;2.80;;
70547;SDS011;58099;43.406;3.698;2022-08-19T15:02:17;8.00;;;3.20;;
70547;SDS011;58099;43.406;3.698;2022-08-19T15:04:45;5.53;;;3.10;;